Time;durP1;ratioP1;P1;durP2;ratioP2;P2;SDS_P1;SDS_P2;PMS_P1;PMS_P2;Temp;Humidity;BMP_temperature;BMP_pressure;BME280_temperature;BME280_humidity;BME280_pressure;Samples;Min_cycle;Max_cycle;Signal;HPM_P1;HPM_P2
2023/03/21 00:02:32;;;;;;;4.90;3.13;;;6.70;99.90;;;;;;8215727;28;20022;-78
2023/03/21 00:06:32;;;;;;;4.32;2.70;;;6.70;99.90;;;;;;8230080;28;20383;-78
2023/03/21 00:10:33;;;;;;;5.57;2.78;;;6.60;99.90;;;;;;8224287;28;20057;-79
2023/03/21 00:14:34;;;;;;;6.05;2.80;;;6.60;99.90;;;;;;8210594;28;20023;-78
2023/03/21 00:18:35;;;;;;;3.72;2.72;;;6.40;99.90;;;;;;8208173;28;20031;-78
2023/03/21 00:22:36;;;;;;;3.72;2.38;;;6.40;99.90;;;;;;8209308;28;20034;-79
2023/03/21 00:26:37;;;;;;;5.07;2.90;;;6.30;99.90;;;;;;8211452;28;20118;-78
2023/03/21 00:30:39;;;;;;;3.90;2.88;;;6.20;99.90;;;;;;8226774;28;20019;-79
2023/03/21 00:34:41;;;;;;;4.07;2.58;;;6.20;99.90;;;;;;8211404;28;20723;-78
2023/03/21 00:38:41;;;;;;;3.38;2.42;;;6.00;99.90;;;;;;8209179;28;20065;-78
2023/03/21 00:42:42;;;;;;;4.55;2.78;;;5.80;99.90;;;;;;8229756;28;20058;-79
2023/03/21 00:46:42;;;;;;;3.75;2.83;;;5.70;99.90;;;;;;8216428;28;20030;-80
2023/03/21 00:50:45;;;;;;;5.40;2.95;;;5.70;99.90;;;;;;8212573;28;20128;-78
2023/03/21 00:54:46;;;;;;;3.80;2.45;;;5.60;99.90;;;;;;8210641;28;20030;-79
2023/03/21 00:58:46;;;;;;;5.18;3.20;;;5.60;99.90;;;;;;8209786;28;20025;-78
2023/03/21 01:02:56;;;;;;;3.72;2.72;;;5.60;99.90;;;;;;8210625;28;20428;-79
2023/03/21 01:06:57;;;;;;;4.78;2.70;;;5.80;99.90;;;;;;8210060;28;20035;-78
2023/03/21 01:11:04;;;;;;;6.03;3.03;;;6.10;99.90;;;;;;8209588;28;20035;-79
2023/03/21 01:15:06;;;;;;;5.43;2.80;;;6.10;99.90;;;;;;8209791;28;20027;-78
2023/03/21 01:19:09;;;;;;;4.22;3.33;;;6.20;99.90;;;;;;8222830;28;20073;-78
2023/03/21 01:23:11;;;;;;;5.28;3.13;;;6.40;99.90;;;;;;8209908;28;20051;-79
2023/03/21 01:27:12;;;;;;;5.25;3.22;;;6.30;99.90;;;;;;8227426;28;20027;-79
2023/03/21 01:31:15;;;;;;;6.72;3.20;;;6.20;99.90;;;;;;8210353;28;20046;-79
2023/03/21 01:35:15;;;;;;;4.00;2.92;;;6.00;99.90;;;;;;8209794;28;20062;-78
2023/03/21 01:39:16;;;;;;;4.65;3.00;;;6.00;99.90;;;;;;8208318;28;20030;-79
2023/03/21 01:43:26;;;;;;;4.45;2.60;;;5.90;99.90;;;;;;8206907;28;20157;-78
2023/03/21 01:47:26;;;;;;;4.82;3.22;;;5.90;99.90;;;;;;8221999;28;20026;-78
2023/03/21 01:51:29;;;;;;;6.00;2.80;;;5.80;99.90;;;;;;8212471;28;20090;-78
2023/03/21 01:55:30;;;;;;;5.63;2.75;;;5.90;99.90;;;;;;8204087;28;20031;-78
2023/03/21 01:59:41;;;;;;;5.90;3.20;;;5.80;99.90;;;;;;8222862;28;20491;-79
2023/03/21 02:03:51;;;;;;;6.28;3.22;;;5.90;99.90;;;;;;8225433;28;20062;-79
2023/03/21 02:07:52;;;;;;;4.47;3.10;;;6.00;99.90;;;;;;8213609;28;20038;-79
2023/03/21 02:11:54;;;;;;;4.82;2.83;;;6.00;99.90;;;;;;8224793;28;20476;-78
2023/03/21 02:16:05;;;;;;;5.03;3.15;;;5.90;99.90;;;;;;8202148;28;20023;-79
2023/03/21 02:20:33;;;;;;;4.20;2.78;;;5.90;99.90;;;;;;8204688;28;20027;-79
2023/03/21 02:24:48;;;;;;;3.83;2.97;;;5.90;99.90;;;;;;8229745;28;20031;-79
2023/03/21 02:29:27;;;;;;;3.88;2.97;;;6.20;99.90;;;;;;8212632;28;20062;-78
2023/03/21 02:33:38;;;;;;;5.53;3.25;;;6.10;99.90;;;;;;8231917;28;20015;-79
2023/03/21 02:37:50;;;;;;;6.47;2.72;;;6.00;99.90;;;;;;8230621;28;20435;-79
2023/03/21 02:42:01;;;;;;;5.05;2.97;;;6.00;99.90;;;;;;8215108;28;20040;-78
2023/03/21 02:46:13;;;;;;;5.35;2.97;;;6.70;99.90;;;;;;8214565;28;20027;-78
2023/03/21 02:50:30;;;;;;;4.38;3.08;;;6.60;99.90;;;;;;8231370;28;20097;-79
2023/03/21 02:54:32;;;;;;;4.55;2.97;;;6.40;99.90;;;;;;8218625;28;20023;-78
2023/03/21 02:58:33;;;;;;;8.27;3.40;;;6.20;99.90;;;;;;8220433;28;20707;-78
2023/03/21 03:02:33;;;;;;;4.22;2.47;;;6.10;99.90;;;;;;8204911;28;20056;-79
2023/03/21 03:06:52;;;;;;;6.10;3.28;;;6.00;99.90;;;;;;8221198;28;20038;-79
2023/03/21 03:11:02;;;;;;;4.60;3.15;;;5.90;99.90;;;;;;8231747;28;20023;-78
2023/03/21 03:15:27;;;;;;;7.75;3.00;;;6.00;99.90;;;;;;8206543;28;20117;-78
2023/03/21 03:19:31;;;;;;;5.57;2.85;;;5.90;99.90;;;;;;8207612;28;20121;-78
2023/03/21 03:23:32;;;;;;;6.00;2.60;;;6.10;99.90;;;;;;8207480;28;20023;-78
2023/03/21 03:27:38;;;;;;;7.65;2.65;;;6.00;99.90;;;;;;8213026;28;20034;-78
2023/03/21 03:31:43;;;;;;;3.28;2.38;;;5.90;99.90;;;;;;8213362;28;20031;-79
2023/03/21 03:35:45;;;;;;;5.90;2.60;;;5.90;99.90;;;;;;8213451;28;20046;-78
2023/03/21 03:40:05;;;;;;;4.65;2.80;;;5.80;99.90;;;;;;8230217;28;20033;-78
2023/03/21 03:44:05;;;;;;;3.90;2.55;;;5.70;99.90;;;;;;8229760;28;20038;-79
2023/03/21 03:48:45;;;;;;;4.28;2.47;;;5.70;99.90;;;;;;8208560;28;20031;-78
2023/03/21 03:52:51;;;;;;;4.90;2.80;;;5.60;99.90;;;;;;8213675;28;20073;-78
2023/03/21 03:56:52;;;;;;;7.32;2.72;;;5.50;99.90;;;;;;8214204;28;20038;-78
2023/03/21 04:00:54;;;;;;;5.65;3.13;;;5.50;99.90;;;;;;8230175;28;20395;-78
2023/03/21 04:04:56;;;;;;;5.88;3.65;;;5.50;99.90;;;;;;8211248;28;20058;-79
2023/03/21 04:08:57;;;;;;;7.30;3.95;;;5.60;99.90;;;;;;8212572;28;20117;-79
2023/03/21 04:12:57;;;;;;;8.10;4.07;;;5.70;99.90;;;;;;8212257;28;20019;-79
2023/03/21 04:16:58;;;;;;;7.47;3.97;;;5.70;99.90;;;;;;8229937;28;20035;-78
2023/03/21 04:20:59;;;;;;;6.20;3.75;;;5.70;99.90;;;;;;8225502;28;20423;-79
2023/03/21 04:25:04;;;;;;;6.85;3.72;;;5.70;99.90;;;;;;8212629;28;20031;-78
2023/03/21 04:29:05;;;;;;;8.57;4.60;;;5.80;99.90;;;;;;8205062;28;20037;-80
2023/03/21 04:33:05;;;;;;;8.57;4.05;;;5.80;99.90;;;;;;8211776;28;20403;-79
2023/03/21 04:37:09;;;;;;;7.63;3.33;;;5.70;99.90;;;;;;8225122;28;20078;-78
2023/03/21 04:41:10;;;;;;;8.27;4.22;;;5.80;99.90;;;;;;8205843;28;20423;-78
2023/03/21 04:45:12;;;;;;;6.07;3.90;;;5.70;99.90;;;;;;8205786;28;20033;-79
2023/03/21 04:49:12;;;;;;;5.63;3.70;;;5.70;99.90;;;;;;8207425;28;20026;-79
2023/03/21 04:53:13;;;;;;;6.75;4.18;;;5.60;99.90;;;;;;8212051;28;20039;-78
2023/03/21 04:57:14;;;;;;;7.82;4.30;;;5.70;99.90;;;;;;8226181;28;20094;-78
2023/03/21 05:01:18;;;;;;;8.13;4.00;;;6.00;99.90;;;;;;8206851;28;20031;-78
2023/03/21 05:05:19;;;;;;;5.25;3.63;;;6.10;99.90;;;;;;8226874;28;20492;-78
2023/03/21 05:09:21;;;;;;;8.20;3.78;;;6.10;99.90;;;;;;8227569;28;20023;-79
2023/03/21 05:13:21;;;;;;;8.02;3.70;;;5.90;99.90;;;;;;8210981;28;20586;-78
2023/03/21 05:17:23;;;;;;;7.25;4.13;;;5.80;99.90;;;;;;8237943;28;20026;-78
2023/03/21 05:21:28;;;;;;;7.30;4.07;;;5.80;99.90;;;;;;8214739;28;20123;-80
2023/03/21 05:25:34;;;;;;;8.13;3.95;;;5.70;99.90;;;;;;8220457;28;20092;-78
2023/03/21 05:29:34;;;;;;;6.20;4.13;;;5.70;99.90;;;;;;8219084;28;20666;-79
2023/03/21 05:33:35;;;;;;;6.47;3.78;;;5.70;99.90;;;;;;8223001;28;20050;-78
2023/03/21 05:37:37;;;;;;;5.03;3.67;;;5.70;99.90;;;;;;8220265;28;20027;-78
2023/03/21 05:41:37;;;;;;;6.50;3.88;;;5.70;99.90;;;;;;8237851;28;20061;-78
2023/03/21 05:45:38;;;;;;;5.55;3.92;;;5.80;99.90;;;;;;8221947;28;20018;-79
2023/03/21 05:49:39;;;;;;;6.25;4.18;;;5.80;99.90;;;;;;8220378;28;20122;-78
2023/03/21 05:53:39;;;;;;;8.73;5.13;;;5.90;99.90;;;;;;8220641;28;20023;-77
2023/03/21 05:57:40;;;;;;;7.25;4.93;;;5.90;99.90;;;;;;8221354;28;20058;-78
2023/03/21 06:01:40;;;;;;;8.73;5.15;;;6.00;99.90;;;;;;8219776;28;20030;-78
2023/03/21 06:05:41;;;;;;;9.50;5.25;;;6.10;99.90;;;;;;8237104;28;20324;-78
2023/03/21 06:09:41;;;;;;;8.68;5.60;;;6.40;99.90;;;;;;8219877;28;20495;-78
2023/03/21 06:13:42;;;;;;;16.45;5.30;;;6.60;99.90;;;;;;8218604;28;20042;-79
2023/03/21 06:17:43;;;;;;;7.80;5.32;;;6.60;99.90;;;;;;8216804;28;20039;-79
2023/03/21 06:21:43;;;;;;;7.80;4.97;;;6.80;99.90;;;;;;8236504;28;20530;-79
2023/03/21 06:25:44;;;;;;;9.60;5.18;;;6.90;99.90;;;;;;8217458;28;20049;-77
2023/03/21 06:29:45;;;;;;;5.20;3.92;;;7.00;99.90;;;;;;8232386;28;20021;-79
2023/03/21 06:33:45;;;;;;;6.13;3.90;;;7.20;99.90;;;;;;8208556;28;20026;-78
2023/03/21 06:37:48;;;;;;;9.10;5.70;;;7.40;99.90;;;;;;8210971;28;20031;-78
2023/03/21 06:41:48;;;;;;;8.23;5.22;;;7.60;99.90;;;;;;8202100;28;20516;-78
2023/03/21 06:45:49;;;;;;;11.05;5.32;;;8.20;99.90;;;;;;8220562;28;20035;-78
2023/03/21 06:49:50;;;;;;;9.05;5.35;;;8.90;99.90;;;;;;8220013;28;20588;-78
2023/03/21 06:53:50;;;;;;;7.85;5.30;;;8.80;99.90;;;;;;8220493;28;20035;-77
2023/03/21 06:57:55;;;;;;;7.22;4.78;;;9.20;99.90;;;;;;8201338;28;20027;-78
2023/03/21 07:01:56;;;;;;;8.27;5.40;;;9.10;99.90;;;;;;8204536;28;20027;-78
2023/03/21 07:05:56;;;;;;;10.65;5.43;;;9.30;99.90;;;;;;8214336;28;20035;-78
2023/03/21 07:09:58;;;;;;;13.38;6.13;;;9.10;99.90;;;;;;8210574;28;20052;-78
2023/03/21 07:13:59;;;;;;;10.13;6.10;;;9.30;99.90;;;;;;8199862;28;20035;-79
2023/03/21 07:18:00;;;;;;;14.05;7.28;;;9.90;99.90;;;;;;8191035;28;20078;-78
2023/03/21 07:22:00;;;;;;;10.32;6.03;;;10.20;99.90;;;;;;8208357;28;20114;-79
2023/03/21 07:26:01;;;;;;;13.82;7.40;;;10.00;99.90;;;;;;8213612;28;20514;-78
2023/03/21 07:30:03;;;;;;;13.50;6.68;;;9.80;99.90;;;;;;8220028;28;20046;-78
2023/03/21 07:34:04;;;;;;;8.10;5.00;;;10.30;99.90;;;;;;8220021;28;20027;-78
2023/03/21 07:38:05;;;;;;;10.63;6.32;;;10.60;99.90;;;;;;8225330;28;20031;-78
2023/03/21 07:42:06;;;;;;;7.70;5.40;;;10.90;99.90;;;;;;8208794;28;20119;-78
2023/03/21 07:46:06;;;;;;;7.57;4.82;;;11.20;99.90;;;;;;8205816;28;20668;-79
2023/03/21 07:50:07;;;;;;;7.78;4.95;;;11.40;99.90;;;;;;8217118;28;20027;-78
2023/03/21 07:54:08;;;;;;;7.97;4.40;;;11.70;99.90;;;;;;8203504;28;20058;-79
2023/03/21 07:58:09;;;;;;;6.18;4.32;;;11.90;99.90;;;;;;8224463;28;20061;-86
2023/03/21 08:02:14;;;;;;;6.10;4.28;;;12.40;99.90;;;;;;8218354;28;20031;-86
2023/03/21 08:06:15;;;;;;;7.20;4.60;;;12.70;99.90;;;;;;8215643;28;20027;-85
2023/03/21 08:10:16;;;;;;;7.25;4.85;;;13.10;99.90;;;;;;8209502;28;20403;-87
2023/03/21 08:14:17;;;;;;;6.47;4.43;;;13.20;99.90;;;;;;8207345;28;20023;-85
2023/03/21 08:18:17;;;;;;;5.60;4.28;;;13.00;99.90;;;;;;8205440;28;20044;-85
2023/03/21 08:22:18;;;;;;;6.55;4.90;;;13.30;99.90;;;;;;8211388;28;20023;-86
2023/03/21 08:26:19;;;;;;;9.57;4.70;;;13.30;99.90;;;;;;8203299;28;20053;-86
2023/03/21 08:30:21;;;;;;;7.25;4.38;;;13.30;99.90;;;;;;8205829;28;20508;-85
2023/03/21 08:34:22;;;;;;;8.50;4.72;;;13.60;99.90;;;;;;8198370;28;20035;-82
2023/03/21 08:38:24;;;;;;;8.27;5.13;;;13.60;99.90;;;;;;8199824;28;20451;-80
2023/03/21 08:42:25;;;;;;;7.00;4.50;;;13.70;99.90;;;;;;8198749;28;20089;-80
2023/03/21 08:46:26;;;;;;;5.93;4.32;;;14.00;99.90;;;;;;8205536;28;20076;-80
2023/03/21 08:50:28;;;;;;;12.43;4.63;;;14.30;99.90;;;;;;8208356;28;20423;-80
2023/03/21 08:54:29;;;;;;;5.72;3.95;;;14.50;99.90;;;;;;8194916;28;20172;-80
2023/03/21 08:58:29;;;;;;;4.95;3.88;;;14.60;99.90;;;;;;8193416;28;20380;-80
2023/03/21 09:02:30;;;;;;;4.25;3.20;;;15.20;99.90;;;;;;8212049;28;20620;-80
2023/03/21 09:06:32;;;;;;;5.20;3.83;;;15.30;99.90;;;;;;8197739;28;20558;-80
2023/03/21 09:10:32;;;;;;;5.95;3.47;;;15.20;99.90;;;;;;8196846;28;20023;-82
2023/03/21 09:14:34;;;;;;;4.88;3.38;;;15.10;99.90;;;;;;8207127;28;20023;-81
2023/03/21 09:18:45;;;;;;;5.45;3.13;;;15.80;99.90;;;;;;8202030;28;20097;-80
2023/03/21 09:22:53;;;;;;;4.18;3.30;;;15.90;99.90;;;;;;8201980;28;20059;-80
2023/03/21 09:26:54;;;;;;;3.45;2.60;;;16.10;99.90;;;;;;8222931;28;20034;-80
2023/03/21 09:30:57;;;;;;;5.07;3.05;;;16.60;99.90;;;;;;8198190;28;20038;-81
2023/03/21 09:34:58;;;;;;;4.40;2.70;;;16.90;99.90;;;;;;8215152;28;20027;-81
2023/03/21 09:38:59;;;;;;;4.38;3.20;;;17.30;99.90;;;;;;8206025;28;20035;-81
2023/03/21 09:43:25;;;;;;;4.53;3.33;;;17.10;99.90;;;;;;8211578;28;20309;-80
2023/03/21 09:47:36;;;;;;;3.90;3.08;;;17.10;99.90;;;;;;8225058;28;20053;-80
2023/03/21 09:51:41;;;;;;;;;;;17.40;99.90;;;;;;8227508;28;20026;-81
2023/03/21 09:55:43;;;;;;;4.55;3.28;;;17.50;99.90;;;;;;8206420;28;19914;-81
2023/03/21 09:59:45;;;;;;;4.63;3.13;;;17.90;99.90;;;;;;8211506;28;20029;-79
2023/03/21 10:03:46;;;;;;;4.55;2.63;;;18.30;99.90;;;;;;8215351;28;20035;-81
2023/03/21 10:07:55;;;;;;;3.45;2.58;;;18.00;99.90;;;;;;8214003;28;20023;-80
2023/03/21 10:12:02;;;;;;;3.13;2.53;;;18.00;99.90;;;;;;8233532;28;20019;-78
2023/03/21 10:16:20;;;;;;;3.95;2.65;;;17.90;99.90;;;;;;8233179;28;20034;-78
2023/03/21 10:20:30;;;;;;;3.70;2.92;;;17.10;99.90;;;;;;8208030;28;20574;-81
2023/03/21 10:24:33;;;;;;;5.18;3.13;;;17.00;99.90;;;;;;8228836;28;20031;-80
2023/03/21 10:28:40;;;;;;;4.93;3.10;;;17.20;99.90;;;;;;8234217;28;20026;-80
2023/03/21 10:32:41;;;;;;;5.28;3.75;;;17.40;99.90;;;;;;8231656;28;20082;-80
2023/03/21 10:36:41;;;;;;;4.13;2.78;;;17.50;99.90;;;;;;8221504;28;20031;-80
2023/03/21 10:40:42;;;;;;;3.78;2.70;;;17.90;99.90;;;;;;8232129;28;20037;-80
2023/03/21 10:44:47;;;;;;;3.97;2.70;;;17.90;99.90;;;;;;8230117;28;20034;-79
2023/03/21 10:48:52;;;;;;;4.22;3.47;;;18.10;99.90;;;;;;8228686;28;20685;-80
2023/03/21 10:52:59;;;;;;;3.97;3.28;;;18.20;99.90;;;;;;8214173;28;20022;-80
2023/03/21 10:57:14;;;;;;;5.38;3.63;;;18.80;99.90;;;;;;8209396;28;20035;-79
2023/03/21 11:01:29;;;;;;;5.72;3.55;;;19.00;99.90;;;;;;8219842;28;20053;-80
2023/03/21 11:05:52;;;;;;;4.97;3.40;;;18.80;99.90;;;;;;8215760;28;20026;-79
2023/03/21 11:09:56;;;;;;;6.20;3.40;;;18.60;99.90;;;;;;8210086;28;20030;-80
2023/03/21 11:14:00;;;;;;;4.35;2.90;;;18.60;99.90;;;;;;8208310;28;20499;-80
2023/03/21 11:18:22;;;;;;;4.88;3.00;;;18.70;99.90;;;;;;8207667;28;20077;-80
2023/03/21 11:22:35;;;;;;;3.85;2.72;;;19.30;99.90;;;;;;8201738;28;20043;-81
2023/03/21 11:26:36;;;;;;;3.50;2.90;;;20.20;99.50;;;;;;8228503;28;20035;-80
2023/03/21 11:30:49;;;;;;;3.88;3.08;;;20.50;99.90;;;;;;8211408;28;20050;-80
2023/03/21 11:34:57;;;;;;;4.63;3.35;;;20.40;99.70;;;;;;8211706;28;20031;-80
2023/03/21 11:39:02;;;;;;;3.63;3.00;;;21.00;98.40;;;;;;8222027;28;20035;-80
2023/03/21 11:43:15;;;;;;;5.50;3.58;;;21.10;96.30;;;;;;8202767;28;20031;-80
2023/03/21 11:47:16;;;;;;;5.03;3.40;;;20.90;96.90;;;;;;8214944;28;20093;-81
2023/03/21 11:51:47;;;;;;;4.35;3.22;;;21.90;94.90;;;;;;8210087;28;20022;-82
2023/03/21 11:55:57;;;;;;;;;;;22.90;93.10;;;;;;8206786;28;20101;-81
2023/03/21 12:00:13;;;;;;;4.50;3.38;;;23.10;90.00;;;;;;8205155;28;19910;-81
2023/03/21 12:04:32;;;;;;;4.50;3.45;;;23.70;92.90;;;;;;8199592;28;20082;-80
2023/03/21 12:09:06;;;;;;;7.88;3.78;;;23.70;82.20;;;;;;8209882;28;20185;-80
2023/03/21 12:13:26;;;;;;;4.30;3.50;;;23.40;89.10;;;;;;8191421;28;20032;-80
2023/03/21 12:17:48;;;;;;;4.35;3.35;;;23.70;84.10;;;;;;8208982;28;20030;-79
2023/03/21 12:22:16;;;;;;;5.15;3.63;;;22.50;89.10;;;;;;8202789;28;20113;-81
2023/03/21 12:26:27;;;;;;;5.05;3.88;;;21.90;88.30;;;;;;8202320;28;20074;-80
2023/03/21 12:31:03;;;;;;;9.15;4.18;;;21.50;90.70;;;;;;8193774;28;20106;-80
2023/03/21 12:35:26;;;;;;;5.45;4.30;;;21.20;90.40;;;;;;8175921;28;20040;-80
2023/03/21 12:39:33;;;;;;;3.88;3.00;;;20.40;92.40;;;;;;8208302;28;20023;-81
2023/03/21 12:43:57;;;;;;;6.43;3.38;;;20.10;90.00;;;;;;8203303;28;20027;-81
2023/03/21 12:48:18;;;;;;;3.83;3.05;;;20.20;88.70;;;;;;8207019;28;20027;-80
2023/03/21 12:52:33;;;;;;;4.50;3.05;;;20.80;88.60;;;;;;8196186;28;20476;-80
2023/03/21 12:56:42;;;;;;;5.25;3.33;;;21.80;88.40;;;;;;8206544;28;20399;-81
2023/03/21 13:00:50;;;;;;;4.75;3.13;;;22.00;86.50;;;;;;8200643;28;20031;-80
2023/03/21 13:04:59;;;;;;;4.20;2.85;;;21.60;87.30;;;;;;8203659;28;20208;-81
2023/03/21 13:09:17;;;;;;;4.40;2.75;;;21.50;78.40;;;;;;8206039;28;20027;-79
2023/03/21 13:13:38;;;;;;;3.15;2.45;;;21.10;87.80;;;;;;8195948;28;20522;-80
2023/03/21 13:17:44;;;;;;;3.20;2.78;;;21.30;84.50;;;;;;8186354;28;20595;-80
2023/03/21 13:21:53;;;;;;;4.15;3.22;;;20.80;83.90;;;;;;8185201;28;20038;-81
2023/03/21 13:25:56;;;;;;;5.18;3.85;;;20.40;91.10;;;;;;8214973;28;20166;-80
2023/03/21 13:30:05;;;;;;;4.05;3.33;;;20.10;90.60;;;;;;8193741;28;20213;-81
2023/03/21 13:34:08;;;;;;;5.57;3.90;;;19.80;91.50;;;;;;8218252;28;20054;-80
2023/03/21 13:38:18;;;;;;;6.05;3.97;;;19.70;91.20;;;;;;8212154;28;20030;-80
2023/03/21 13:42:28;;;;;;;4.38;3.70;;;19.50;91.40;;;;;;8221458;28;20055;-80
2023/03/21 13:46:28;;;;;;;6.33;4.33;;;19.40;91.50;;;;;;8212902;28;20034;-81
2023/03/21 13:50:50;;;;;;;4.93;3.90;;;19.20;91.90;;;;;;8209949;28;20529;-80
2023/03/21 13:54:55;;;;;;;14.57;5.03;;;19.10;92.50;;;;;;8215631;28;20023;-80
2023/03/21 13:59:01;;;;;;;4.80;3.80;;;18.90;94.40;;;;;;8215221;28;20026;-81
2023/03/21 14:03:08;;;;;;;6.43;4.03;;;18.70;95.50;;;;;;8214727;28;20082;-81
2023/03/21 14:07:12;;;;;;;7.85;4.32;;;18.70;93.50;;;;;;8225692;28;20027;-81
2023/03/21 14:11:18;;;;;;;6.63;4.18;;;18.30;95.30;;;;;;8229217;28;20027;-81
2023/03/21 14:15:24;;;;;;;4.90;3.90;;;17.90;94.70;;;;;;8208596;28;20031;-79
2023/03/21 14:19:32;;;;;;;5.72;4.40;;;18.00;95.90;;;;;;8211646;28;20119;-80
2023/03/21 14:23:32;;;;;;;6.53;3.90;;;18.20;94.90;;;;;;8207320;28;20029;-80
2023/03/21 14:27:36;;;;;;;6.35;4.00;;;18.20;94.10;;;;;;8211449;28;20031;-80
2023/03/21 14:31:38;;;;;;;7.70;4.07;;;18.10;95.60;;;;;;8209603;28;20023;-81
2023/03/21 14:35:40;;;;;;;6.78;4.07;;;18.10;95.90;;;;;;8213302;28;20233;-81
2023/03/21 14:39:40;;;;;;;4.95;3.30;;;18.10;96.60;;;;;;8213471;28;20023;-81
2023/03/21 14:43:41;;;;;;;5.05;3.40;;;18.20;95.20;;;;;;8212008;28;20034;-81
2023/03/21 14:48:13;;;;;;;4.32;2.75;;;17.80;96.60;;;;;;8209165;28;20442;-81
2023/03/21 14:52:32;;;;;;;4.07;2.85;;;17.80;94.50;;;;;;8223411;28;20059;-80
2023/03/21 14:56:35;;;;;;;2.88;2.58;;;17.60;93.90;;;;;;8212692;28;20031;-80
2023/03/21 15:00:36;;;;;;;4.10;2.67;;;17.40;94.60;;;;;;8208094;28;20031;-81
2023/03/21 15:04:36;;;;;;;5.38;2.45;;;17.10;94.40;;;;;;8203912;28;20340;-80
2023/03/21 15:08:39;;;;;;;3.15;2.22;;;17.50;95.00;;;;;;8203977;28;20113;-81
2023/03/21 15:12:50;;;;;;;2.38;2.10;;;17.80;94.10;;;;;;8212797;28;20026;-81
2023/03/21 15:16:51;;;;;;;3.83;2.40;;;18.10;91.80;;;;;;8230039;28;20092;-81
2023/03/21 15:20:54;;;;;;;3.35;2.20;;;17.70;92.50;;;;;;8209904;28;20023;-81
2023/03/21 15:24:59;;;;;;;3.42;2.35;;;17.60;91.30;;;;;;8211896;28;20527;-81
2023/03/21 15:29:01;;;;;;;3.10;2.10;;;17.30;93.30;;;;;;8211961;28;20027;-81
2023/03/21 15:33:08;;;;;;;2.72;1.90;;;16.80;93.30;;;;;;8211754;28;20105;-80
2023/03/21 15:37:20;;;;;;;7.22;3.95;;;16.30;93.60;;;;;;8202322;28;20623;-80
2023/03/21 15:41:21;;;;;;;2.65;2.08;;;16.10;93.30;;;;;;8209528;28;20042;-80
2023/03/21 15:45:25;;;;;;;3.67;2.20;;;16.10;93.20;;;;;;8204261;28;20404;-80
2023/03/21 15:49:39;;;;;;;2.42;1.98;;;16.10;94.80;;;;;;8209820;28;20022;-80
2023/03/21 15:53:42;;;;;;;4.75;2.35;;;16.10;95.90;;;;;;8200402;28;20031;-79
2023/03/21 15:57:45;;;;;;;5.28;2.22;;;15.80;95.00;;;;;;8198454;28;20070;-81
2023/03/21 16:01:47;;;;;;;11.25;2.95;;;15.80;96.60;;;;;;8220793;28;20026;-81
2023/03/21 16:06:34;;;;;;;5.55;2.20;;;15.70;97.60;;;;;;8199570;28;20046;-80
2023/03/21 16:10:36;;;;;;;5.15;2.60;;;15.60;97.50;;;;;;8170663;28;20045;-80
2023/03/21 16:14:37;;;;;;;2.63;2.10;;;15.30;99.40;;;;;;8214658;28;20027;-81
2023/03/21 16:18:38;;;;;;;3.58;2.22;;;15.20;99.20;;;;;;8217044;28;20022;-81
2023/03/21 16:22:38;;;;;;;3.08;2.13;;;15.00;99.90;;;;;;8196506;28;20034;-81
2023/03/21 16:26:44;;;;;;;2.55;2.30;;;14.90;99.40;;;;;;8201827;28;20062;-81
2023/03/21 16:30:45;;;;;;;3.30;2.47;;;14.70;99.90;;;;;;8199650;28;20053;-81
2023/03/21 16:34:46;;;;;;;3.08;2.10;;;14.50;99.90;;;;;;8197607;28;20027;-81
2023/03/21 16:38:48;;;;;;;3.47;2.35;;;14.50;99.90;;;;;;8220669;28;20054;-80
2023/03/21 16:42:49;;;;;;;5.30;2.20;;;14.40;99.90;;;;;;8202946;28;20407;-81
2023/03/21 16:46:49;;;;;;;4.03;2.33;;;14.30;99.90;;;;;;8214459;28;20055;-81
2023/03/21 16:50:50;;;;;;;4.25;2.42;;;14.10;99.90;;;;;;8201293;28;20545;-81
2023/03/21 16:54:51;;;;;;;5.35;2.63;;;13.90;99.90;;;;;;8199208;28;20034;-80
2023/03/21 16:58:55;;;;;;;4.22;3.00;;;13.90;99.90;;;;;;8207063;28;20023;-80
2023/03/21 17:03:00;;;;;;;4.18;3.65;;;13.80;99.90;;;;;;8207873;28;20027;-79
2023/03/21 17:07:01;;;;;;;4.30;3.65;;;13.90;99.90;;;;;;8204456;28;20586;-78
2023/03/21 17:11:05;;;;;;;3.38;2.80;;;13.70;99.90;;;;;;8196171;28;20083;-80
2023/03/21 17:15:06;;;;;;;3.97;2.60;;;13.60;99.90;;;;;;8199532;28;20027;-80
2023/03/21 17:19:12;;;;;;;4.80;2.80;;;13.40;99.90;;;;;;8213123;28;20557;-81
2023/03/21 17:23:12;;;;;;;6.82;2.45;;;13.10;99.90;;;;;;8201975;28;20027;-79
2023/03/21 17:27:14;;;;;;;5.43;2.83;;;12.80;99.90;;;;;;8197732;28;20496;-79
2023/03/21 17:31:21;;;;;;;3.20;2.70;;;12.80;99.90;;;;;;8204708;28;20027;-77
2023/03/21 17:35:23;;;;;;;4.90;3.20;;;12.70;99.90;;;;;;8222460;28;20030;-78
2023/03/21 17:39:25;;;;;;;9.95;3.85;;;12.60;99.90;;;;;;8209493;28;20035;-79
2023/03/21 17:43:26;;;;;;;7.15;3.40;;;12.30;99.90;;;;;;8209728;28;20034;-78
2023/03/21 17:47:28;;;;;;;4.20;3.03;;;12.30;99.90;;;;;;8206733;28;20031;-79
2023/03/21 17:51:29;;;;;;;6.25;4.38;;;12.10;99.90;;;;;;8207093;28;20070;-78
2023/03/21 17:55:30;;;;;;;3.53;2.83;;;12.10;99.90;;;;;;8224451;28;20455;-77
2023/03/21 17:59:30;;;;;;;6.40;4.28;;;12.00;99.90;;;;;;8208524;28;20499;-78
2023/03/21 18:03:31;;;;;;;7.32;3.58;;;11.90;99.90;;;;;;8221470;28;20114;-78
2023/03/21 18:07:33;;;;;;;5.32;3.50;;;11.70;99.90;;;;;;8222839;28;20416;-79
2023/03/21 18:11:34;;;;;;;6.97;4.90;;;11.60;99.90;;;;;;8206025;28;20058;-78
2023/03/21 18:15:34;;;;;;;5.32;3.72;;;11.60;99.90;;;;;;8221141;28;20026;-79
2023/03/21 18:19:37;;;;;;;6.50;3.55;;;11.60;99.90;;;;;;8205699;28;20023;-79
2023/03/21 18:23:39;;;;;;;6.22;3.75;;;11.50;99.90;;;;;;8229680;28;20497;-78
2023/03/21 18:27:40;;;;;;;6.30;3.20;;;11.30;99.90;;;;;;8210754;28;20036;-79
2023/03/21 18:31:41;;;;;;;7.05;3.55;;;11.00;99.90;;;;;;8210041;28;20031;-78
2023/03/21 18:35:42;;;;;;;8.35;4.60;;;10.70;99.90;;;;;;8210791;28;20058;-79
2023/03/21 18:39:44;;;;;;;11.68;6.45;;;10.60;99.90;;;;;;8210831;28;20029;-79
2023/03/21 18:43:44;;;;;;;10.52;6.07;;;10.50;99.90;;;;;;8234804;28;20029;-78
2023/03/21 18:47:45;;;;;;;9.95;5.68;;;10.30;99.90;;;;;;8211932;28;20027;-79
2023/03/21 18:51:46;;;;;;;14.88;5.88;;;10.40;99.90;;;;;;8218278;28;20254;-79
2023/03/21 18:55:47;;;;;;;8.43;5.05;;;10.40;99.90;;;;;;8225961;28;20031;-79
2023/03/21 18:59:48;;;;;;;7.22;4.95;;;10.40;99.90;;;;;;8223646;28;20023;-78
2023/03/21 19:03:48;;;;;;;6.75;4.50;;;10.30;99.90;;;;;;8212557;28;20046;-78
2023/03/21 19:07:50;;;;;;;6.32;4.43;;;10.40;99.90;;;;;;8210964;28;20498;-79
2023/03/21 19:11:51;;;;;;;6.43;4.38;;;10.10;99.90;;;;;;8211988;28;20454;-79
2023/03/21 19:15:52;;;;;;;6.22;4.43;;;9.80;99.90;;;;;;8218187;28;20023;-79
2023/03/21 19:19:52;;;;;;;5.88;4.25;;;9.90;99.90;;;;;;8225529;28;20042;-79
2023/03/21 19:23:53;;;;;;;7.32;4.47;;;10.00;99.90;;;;;;8229810;28;20037;-78
2023/03/21 19:27:54;;;;;;;10.60;4.38;;;9.90;99.90;;;;;;8209936;28;20069;-78
2023/03/21 19:31:55;;;;;;;6.45;3.92;;;9.80;99.90;;;;;;8212167;28;20572;-79
2023/03/21 19:35:55;;;;;;;8.75;4.25;;;9.60;99.90;;;;;;8228734;28;20059;-78
2023/03/21 19:39:56;;;;;;;5.65;3.83;;;9.90;99.90;;;;;;8212275;28;20033;-78
2023/03/21 19:43:56;;;;;;;9.05;3.88;;;9.80;99.90;;;;;;8210493;28;20121;-78
2023/03/21 19:47:57;;;;;;;6.28;4.35;;;9.60;99.90;;;;;;8226919;28;20557;-79
2023/03/21 19:51:57;;;;;;;5.32;4.57;;;9.60;99.90;;;;;;8218291;28;20027;-78
2023/03/21 19:55:58;;;;;;;7.40;4.55;;;9.40;99.90;;;;;;8209301;28;20043;-79
2023/03/21 19:59:58;;;;;;;7.30;4.93;;;9.30;99.90;;;;;;8223791;28;20046;-78
2023/03/21 20:03:59;;;;;;;13.18;7.97;;;9.10;99.90;;;;;;8192534;28;20093;-78
2023/03/21 20:08:00;;;;;;;13.88;7.93;;;9.10;99.90;;;;;;8216105;28;20035;-76
2023/03/21 20:12:01;;;;;;;19.45;10.18;;;9.00;99.90;;;;;;8215098;28;20023;-78
2023/03/21 20:16:01;;;;;;;15.35;8.70;;;8.90;99.90;;;;;;8198711;28;20094;-79
2023/03/21 20:20:08;;;;;;;17.30;10.35;;;8.70;99.90;;;;;;8195832;28;20031;-78
2023/03/21 20:24:10;;;;;;;17.63;11.05;;;8.60;99.90;;;;;;8194411;28;20058;-79
2023/03/21 20:28:12;;;;;;;13.90;9.07;;;8.50;99.90;;;;;;8218683;28;20031;-79
2023/03/21 20:32:13;;;;;;;13.88;8.70;;;8.50;99.90;;;;;;8193354;28;20023;-79
2023/03/21 20:36:13;;;;;;;13.05;8.23;;;8.50;99.90;;;;;;8208798;28;20093;-79
2023/03/21 20:40:16;;;;;;;12.75;8.07;;;8.50;99.90;;;;;;8202042;28;20031;-79
2023/03/21 20:44:17;;;;;;;14.55;9.38;;;8.40;99.90;;;;;;8203851;28;20030;-78
2023/03/21 20:48:18;;;;;;;17.60;9.50;;;8.40;99.90;;;;;;8218279;28;20734;-78
2023/03/21 20:52:19;;;;;;;14.20;7.97;;;8.40;99.90;;;;;;8199046;28;20034;-77
2023/03/21 20:56:19;;;;;;;15.00;8.75;;;8.30;99.90;;;;;;8213486;28;20491;-79
2023/03/21 21:00:21;;;;;;;15.25;9.10;;;8.40;99.90;;;;;;8200106;28;20131;-79
2023/03/21 21:04:22;;;;;;;15.63;8.98;;;8.30;99.90;;;;;;8204233;28;20081;-78
2023/03/21 21:08:23;;;;;;;17.25;8.60;;;8.30;99.90;;;;;;8201959;28;20031;-79
2023/03/21 21:12:27;;;;;;;13.75;8.35;;;8.50;99.90;;;;;;8201392;28;20423;-78
2023/03/21 21:16:28;;;;;;;13.20;7.40;;;8.50;99.90;;;;;;8212690;28;20038;-78
2023/03/21 21:20:28;;;;;;;12.43;6.93;;;8.40;99.90;;;;;;8206052;28;20118;-78